createdAt,value
2019-01-17T00:01:44.275Z,4.60
2019-01-17T00:04:32.180Z,4.60
2019-01-17T00:07:32.039Z,4.60
2019-01-17T00:10:09.566Z,4.60
2019-01-17T00:12:51.695Z,4.50
2019-01-17T00:15:39.503Z,4.50
2019-01-17T00:18:21.525Z,4.50
2019-01-17T00:21:17.892Z,4.50
2019-01-17T00:24:02.582Z,4.50
2019-01-17T00:26:49.227Z,4.50
2019-01-17T00:29:35.877Z,4.50
2019-01-17T00:32:38.708Z,4.50
2019-01-17T00:35:20.020Z,4.40
2019-01-17T00:38:04.022Z,4.40
2019-01-17T00:40:40.187Z,4.40
2019-01-17T00:43:28.806Z,4.50
2019-01-17T00:46:26.594Z,4.50
2019-01-17T00:49:02.902Z,4.50
2019-01-17T00:51:49.592Z,4.50
2019-01-17T00:54:39.216Z,4.50
2019-01-17T00:57:19.912Z,4.50
2019-01-17T00:59:59.621Z,4.50
2019-01-17T01:02:56.537Z,4.50
2019-01-17T01:06:02.814Z,4.50
2019-01-17T01:08:49.585Z,4.50
2019-01-17T01:11:27.189Z,4.60
2019-01-17T01:14:13.907Z,4.60
2019-01-17T01:17:04.235Z,4.60
2019-01-17T01:20:02.578Z,4.60
2019-01-17T01:22:53.495Z,4.60
2019-01-17T01:25:33.522Z,4.50
2019-01-17T01:28:20.393Z,4.50
2019-01-17T01:31:09.207Z,4.50
2019-01-17T01:34:05.968Z,4.50
2019-01-17T01:36:57.388Z,4.60
2019-01-17T01:39:39.134Z,4.50
2019-01-17T01:42:15.402Z,4.50
2019-01-17T01:45:02.118Z,4.60
2019-01-17T01:47:50.718Z,4.60
2019-01-17T01:50:39.089Z,4.60
2019-01-17T01:53:07.875Z,4.60
2019-01-17T01:55:36.803Z,4.60
2019-01-17T01:58:05.862Z,4.60
2019-01-17T02:00:34.891Z,4.60
2019-01-17T02:03:03.897Z,4.70
2019-01-17T02:05:32.865Z,4.70
2019-01-17T02:08:01.935Z,4.60
2019-01-17T02:10:30.603Z,4.70
2019-01-17T02:12:59.334Z,4.70
2019-01-17T02:15:28.093Z,4.60
2019-01-17T02:17:56.770Z,4.60
2019-01-17T02:20:25.682Z,4.60
2019-01-17T02:22:54.443Z,4.60
2019-01-17T02:25:23.110Z,4.70
2019-01-17T02:27:51.770Z,4.80
2019-01-17T02:30:20.716Z,4.80
2019-01-17T02:32:49.387Z,4.90
2019-01-17T02:35:18.509Z,4.90
2019-01-17T02:37:47.512Z,5.00
2019-01-17T02:40:16.158Z,5.10
2019-01-17T02:42:44.843Z,5.10
2019-01-17T02:45:14.632Z,5.10
2019-01-17T02:47:43.320Z,5.20
2019-01-17T02:50:12.750Z,5.20
2019-01-17T02:52:41.909Z,5.20
2019-01-17T02:55:10.817Z,5.20
2019-01-17T02:57:39.473Z,5.30
2019-01-17T03:00:12.083Z,5.30
2019-01-17T03:02:41.053Z,5.40
2019-01-17T03:05:09.810Z,5.40
2019-01-17T03:07:38.887Z,5.40
2019-01-17T03:10:11.461Z,5.40
2019-01-17T03:12:40.398Z,5.50
2019-01-17T03:15:09.464Z,5.50
2019-01-17T03:17:38.371Z,5.50
2019-01-17T03:20:07.781Z,5.50
2019-01-17T03:22:36.845Z,5.50
2019-01-17T03:25:06.843Z,5.50
2019-01-17T03:27:35.582Z,5.60
2019-01-17T03:30:06.428Z,5.60
2019-01-17T03:32:35.856Z,5.60
2019-01-17T03:35:05.318Z,5.60
2019-01-17T03:37:34.024Z,5.60
2019-01-17T03:40:02.948Z,5.60
2019-01-17T03:42:31.680Z,5.60
2019-01-17T03:45:00.356Z,5.60
2019-01-17T03:47:29.031Z,5.60
2019-01-17T03:49:57.814Z,5.70
2019-01-17T03:52:26.861Z,5.70
2019-01-17T03:54:55.961Z,5.70
2019-01-17T03:57:25.300Z,5.70
2019-01-17T03:59:54.578Z,5.70
2019-01-17T04:02:24.679Z,5.70
2019-01-17T04:04:53.587Z,5.70
2019-01-17T04:07:22.293Z,5.80
2019-01-17T04:09:50.978Z,5.80
2019-01-17T04:12:19.963Z,5.80
2019-01-17T04:14:48.694Z,5.80
2019-01-17T04:17:17.581Z,5.80
2019-01-17T04:19:46.277Z,5.80
2019-01-17T04:22:15.028Z,5.80
2019-01-17T04:24:43.709Z,5.90
2019-01-17T04:27:12.430Z,5.80
2019-01-17T04:29:41.112Z,5.80
2019-01-17T04:32:10.093Z,5.80
2019-01-17T04:34:39.509Z,5.90
2019-01-17T04:37:08.197Z,5.80
2019-01-17T04:39:37.078Z,5.90
2019-01-17T04:42:05.732Z,5.90
2019-01-17T04:44:34.766Z,5.90
2019-01-17T04:47:03.769Z,5.90
2019-01-17T04:49:32.908Z,5.90
2019-01-17T04:52:01.666Z,6.00
2019-01-17T04:54:30.574Z,6.00
2019-01-17T04:56:59.224Z,6.00
2019-01-17T04:59:27.946Z,6.00
2019-01-17T05:01:56.597Z,6.00
2019-01-17T05:04:25.255Z,6.00
2019-01-17T05:06:54.050Z,6.00
2019-01-17T05:09:23.784Z,6.00
2019-01-17T05:11:52.445Z,6.10
2019-01-17T05:14:21.179Z,6.10
2019-01-17T05:16:50.095Z,6.20
2019-01-17T05:19:19.147Z,6.20
2019-01-17T05:21:48.494Z,6.30
2019-01-17T05:24:17.590Z,6.30
2019-01-17T05:26:46.408Z,6.30
2019-01-17T05:29:15.103Z,6.40
2019-01-17T05:31:43.786Z,6.40
2019-01-17T05:34:12.464Z,6.40
2019-01-17T05:36:42.496Z,6.40
2019-01-17T05:39:11.138Z,6.40
2019-01-17T05:41:40.071Z,6.50
2019-01-17T05:44:09.185Z,6.50
2019-01-17T05:46:37.846Z,6.50
2019-01-17T05:49:06.647Z,6.50
2019-01-17T05:51:35.571Z,6.50
2019-01-17T05:54:04.235Z,6.50
2019-01-17T05:56:33.770Z,6.50
2019-01-17T05:59:02.527Z,6.50
2019-01-17T06:01:31.744Z,6.50
2019-01-17T06:04:00.518Z,6.60
2019-01-17T06:06:33.069Z,6.60
2019-01-17T06:08:59.533Z,6.60
2019-01-17T06:11:28.303Z,6.60
2019-01-17T06:13:56.996Z,6.50
2019-01-17T06:16:25.887Z,6.50
2019-01-17T06:18:54.911Z,6.50
2019-01-17T06:21:23.677Z,6.50
2019-01-17T06:23:52.601Z,6.50
2019-01-17T06:26:21.314Z,6.50
2019-01-17T06:28:49.980Z,6.50
2019-01-17T06:31:18.777Z,6.50
2019-01-17T06:33:47.522Z,6.50
2019-01-17T06:36:16.216Z,6.50
2019-01-17T06:38:45.490Z,6.50
2019-01-17T06:41:14.313Z,6.50
2019-01-17T06:43:43.298Z,6.60
2019-01-17T06:46:11.985Z,6.50
2019-01-17T06:48:40.819Z,6.50
2019-01-17T06:51:09.565Z,6.60
2019-01-17T06:53:38.252Z,6.50
2019-01-17T06:56:07.463Z,6.60
2019-01-17T06:58:36.353Z,6.60
2019-01-17T07:01:05.041Z,6.70
2019-01-17T07:03:34.071Z,6.60
2019-01-17T07:06:03.235Z,6.60
2019-01-17T07:08:32.326Z,6.60
2019-01-17T07:11:01.495Z,6.60
2019-01-17T07:13:30.302Z,6.70
2019-01-17T07:15:59.092Z,6.70
2019-01-17T07:18:28.187Z,6.70
2019-01-17T07:20:57.470Z,6.70
2019-01-17T07:23:27.645Z,6.70
2019-01-17T07:25:59.102Z,6.70
2019-01-17T07:28:27.874Z,6.70
2019-01-17T07:30:59.854Z,6.70
2019-01-17T07:33:28.605Z,6.70
2019-01-17T07:35:57.859Z,6.70
2019-01-17T07:38:27.130Z,6.70
2019-01-17T07:40:57.892Z,6.70
2019-01-17T07:43:26.857Z,6.70
2019-01-17T07:45:55.522Z,6.70
2019-01-17T07:48:24.222Z,6.70
2019-01-17T07:50:52.994Z,6.70
2019-01-17T07:53:21.763Z,6.70
2019-01-17T07:55:50.591Z,6.70
2019-01-17T07:58:19.272Z,6.70
2019-01-17T08:00:48.257Z,6.70
2019-01-17T08:03:17.305Z,6.70
2019-01-17T08:05:46.214Z,6.70
2019-01-17T08:08:15.166Z,6.70
2019-01-17T08:10:44.086Z,6.70
2019-01-17T08:13:12.821Z,6.80
2019-01-17T08:15:41.794Z,6.80
2019-01-17T08:18:10.598Z,6.80
2019-01-17T08:20:39.755Z,6.90
2019-01-17T08:23:08.517Z,6.90
2019-01-17T08:25:38.062Z,6.90
2019-01-17T08:28:06.826Z,6.90
2019-01-17T08:30:35.738Z,6.90
2019-01-17T08:33:04.726Z,6.90
2019-01-17T08:35:33.674Z,6.90
2019-01-17T08:38:02.441Z,6.90
2019-01-17T08:40:32.823Z,7.00
2019-01-17T08:43:01.928Z,6.90
2019-01-17T08:45:31.004Z,7.00
2019-01-17T08:47:59.710Z,7.10
2019-01-17T08:50:28.656Z,7.10
2019-01-17T08:52:57.367Z,7.20
2019-01-17T08:55:26.090Z,7.10
2019-01-17T08:57:55.243Z,7.10
2019-01-17T09:00:24.856Z,7.10
2019-01-17T09:02:53.634Z,7.10
2019-01-17T09:05:22.463Z,7.10
2019-01-17T09:07:51.220Z,7.10
2019-01-17T09:10:25.128Z,7.20
2019-01-17T09:12:54.073Z,7.20
2019-01-17T09:15:25.084Z,7.20
2019-01-17T09:17:53.803Z,7.20
2019-01-17T09:20:23.178Z,7.10
2019-01-17T09:22:52.251Z,7.10
2019-01-17T09:25:21.122Z,7.20
2019-01-17T09:27:49.878Z,7.30
2019-01-17T09:30:18.901Z,7.40
2019-01-17T09:32:48.138Z,7.40
2019-01-17T09:35:17.248Z,7.40
2019-01-17T09:37:45.983Z,7.30
2019-01-17T09:40:19.431Z,7.30
2019-01-17T09:42:48.394Z,7.50
2019-01-17T09:45:19.752Z,7.50
2019-01-17T09:47:49.029Z,7.50
2019-01-17T09:50:22.758Z,7.50
2019-01-17T09:52:51.854Z,7.50
2019-01-17T09:55:20.738Z,7.60
2019-01-17T09:57:49.442Z,7.50
2019-01-17T10:00:30.934Z,7.60
2019-01-17T10:02:59.875Z,7.60
2019-01-17T10:05:28.874Z,7.50
2019-01-17T10:07:58.054Z,7.50
2019-01-17T10:10:27.017Z,7.60
2019-01-17T10:12:55.728Z,7.60
2019-01-17T10:15:54.203Z,7.60
2019-01-17T10:18:49.043Z,7.60
2019-01-17T10:21:59.285Z,7.70
2019-01-17T10:25:23.246Z,7.60
2019-01-17T10:28:19.766Z,7.60
2019-01-17T10:31:11.662Z,7.70
2019-01-17T10:34:17.438Z,7.60
2019-01-17T10:37:11.333Z,7.70
2019-01-17T10:40:14.736Z,7.70
2019-01-17T10:43:14.318Z,7.70
2019-01-17T10:46:22.794Z,7.70
2019-01-17T10:49:14.334Z,7.80
2019-01-17T10:52:09.891Z,7.90
2019-01-17T10:55:19.489Z,7.90
2019-01-17T10:58:01.428Z,7.90
2019-01-17T11:01:08.232Z,7.80
2019-01-17T11:04:16.921Z,7.80
2019-01-17T11:07:06.967Z,7.90
2019-01-17T11:10:05.805Z,8.10
2019-01-17T11:13:18.588Z,8.20
2019-01-17T11:16:15.536Z,8.30
2019-01-17T11:19:25.758Z,8.30
2019-01-17T11:22:19.022Z,8.30
2019-01-17T11:25:25.122Z,8.40
2019-01-17T11:28:17.653Z,8.40
2019-01-17T11:31:24.190Z,8.30
2019-01-17T11:34:19.741Z,8.40
2019-01-17T11:37:25.627Z,8.40
2019-01-17T11:40:34.403Z,8.50
2019-01-17T11:43:20.749Z,8.40
2019-01-17T11:46:15.282Z,8.30
2019-01-17T11:49:04.602Z,8.30
2019-01-17T11:51:46.130Z,8.40
2019-01-17T11:54:33.065Z,8.40
2019-01-17T11:57:35.954Z,8.40
2019-01-17T12:00:45.738Z,8.30
2019-01-17T12:03:31.578Z,8.30
2019-01-17T12:06:00.513Z,8.40
2019-01-17T12:08:29.187Z,8.50
2019-01-17T12:10:58.784Z,8.60
2019-01-17T12:13:27.458Z,8.60
2019-01-17T12:16:05.074Z,8.50
2019-01-17T12:18:34.069Z,8.40
2019-01-17T12:21:02.761Z,8.40
2019-01-17T12:23:34.775Z,8.40
2019-01-17T12:26:06.272Z,8.50
2019-01-17T12:28:35.971Z,8.50
2019-01-17T12:31:05.521Z,8.60
2019-01-17T12:33:34.459Z,8.60
2019-01-17T12:36:03.282Z,8.50
2019-01-17T12:38:32.103Z,8.40
2019-01-17T12:41:00.771Z,8.50
2019-01-17T12:43:29.540Z,8.40
2019-01-17T12:45:58.317Z,8.40
2019-01-17T12:48:27.030Z,8.50
2019-01-17T12:50:55.762Z,8.50
2019-01-17T12:53:24.857Z,8.50
2019-01-17T12:55:53.597Z,8.50
2019-01-17T12:58:22.511Z,8.50
2019-01-17T13:00:51.431Z,8.50
2019-01-17T13:03:20.243Z,8.50
2019-01-17T13:05:52.035Z,8.50
2019-01-17T13:08:20.746Z,8.60
2019-01-17T13:10:49.797Z,8.60
2019-01-17T13:13:18.446Z,8.70
2019-01-17T13:15:47.285Z,8.70
2019-01-17T13:18:16.522Z,8.70
2019-01-17T13:20:45.433Z,8.70
2019-01-17T13:23:15.263Z,8.60
2019-01-17T13:25:45.438Z,8.50
2019-01-17T13:28:15.053Z,8.40
2019-01-17T13:30:43.815Z,8.30
2019-01-17T13:33:12.932Z,8.30
2019-01-17T13:35:41.675Z,8.20
2019-01-17T13:38:11.748Z,8.10
2019-01-17T13:40:41.899Z,8.10
2019-01-17T13:43:11.794Z,8.10
2019-01-17T13:45:40.562Z,8.10
2019-01-17T13:48:15.194Z,8.20
2019-01-17T13:50:50.649Z,8.30
2019-01-17T13:53:22.071Z,8.20
2019-01-17T13:55:50.903Z,8.20
2019-01-17T13:58:19.718Z,8.10
2019-01-17T14:00:48.610Z,8.10
2019-01-17T14:03:17.591Z,8.00
2019-01-17T14:05:46.714Z,7.90
2019-01-17T14:08:15.394Z,7.90
2019-01-17T14:10:45.193Z,7.90
2019-01-17T14:13:18.328Z,7.90
2019-01-17T14:15:50.234Z,7.90
2019-01-17T14:18:19.144Z,8.00
2019-01-17T14:20:48.051Z,8.00
2019-01-17T14:23:17.772Z,8.10
2019-01-17T14:25:49.430Z,8.10
2019-01-17T14:28:18.518Z,8.10
2019-01-17T14:30:50.371Z,8.10
2019-01-17T14:33:21.024Z,8.10
2019-01-17T14:35:49.950Z,8.00
2019-01-17T14:38:18.841Z,8.00
2019-01-17T14:40:47.545Z,7.90
2019-01-17T14:43:16.330Z,7.80
2019-01-17T14:45:48.396Z,7.70
2019-01-17T14:48:18.421Z,7.60
2019-01-17T14:51:30.552Z,7.60
2019-01-17T14:54:07.834Z,7.50
2019-01-17T14:56:36.597Z,7.40
2019-01-17T14:59:08.528Z,7.40
2019-01-17T15:01:37.398Z,7.30
2019-01-17T15:04:06.182Z,7.30
2019-01-17T15:06:38.006Z,7.20
2019-01-17T15:09:08.186Z,7.10
2019-01-17T15:11:37.090Z,7.00
2019-01-17T15:14:07.431Z,7.00
2019-01-17T15:16:36.266Z,6.90
2019-01-17T15:19:08.236Z,6.90
2019-01-17T15:21:36.941Z,6.80
2019-01-17T15:24:05.698Z,6.80
2019-01-17T15:26:34.441Z,6.70
2019-01-17T15:29:05.894Z,6.70
2019-01-17T15:31:34.786Z,6.70
2019-01-17T15:34:04.028Z,6.60
2019-01-17T15:36:34.122Z,6.60
2019-01-17T15:39:03.887Z,6.50
2019-01-17T15:41:32.571Z,6.40
2019-01-17T15:44:01.367Z,6.40
2019-01-17T15:46:30.095Z,6.40
2019-01-17T15:48:58.790Z,6.40
2019-01-17T15:51:27.514Z,6.40
2019-01-17T15:53:56.246Z,6.50
2019-01-17T15:56:25.234Z,6.50
2019-01-17T15:58:53.909Z,6.50
2019-01-17T16:01:23.022Z,6.50
2019-01-17T16:03:52.083Z,6.50
2019-01-17T16:06:21.039Z,6.40
2019-01-17T16:08:49.738Z,6.40
2019-01-17T16:11:18.501Z,6.40
2019-01-17T16:13:47.498Z,6.40
2019-01-17T16:16:16.157Z,6.40
2019-01-17T16:18:45.187Z,6.50
2019-01-17T16:21:14.256Z,6.50
2019-01-17T16:23:43.134Z,6.50
2019-01-17T16:26:11.842Z,6.60
2019-01-17T16:28:40.839Z,6.70
2019-01-17T16:31:09.619Z,6.70
2019-01-17T16:33:38.463Z,6.70
2019-01-17T16:36:07.246Z,6.70
2019-01-17T16:38:35.966Z,6.70
2019-01-17T16:41:04.734Z,6.80
2019-01-17T16:43:33.646Z,6.80
2019-01-17T16:46:06.500Z,6.90
2019-01-17T16:48:35.498Z,6.90
2019-01-17T16:51:04.731Z,6.90
2019-01-17T16:53:33.610Z,6.90
2019-01-17T16:56:06.805Z,6.80
2019-01-17T16:58:35.911Z,6.70
2019-01-17T17:01:06.885Z,6.70
2019-01-17T17:03:35.990Z,6.70
2019-01-17T17:06:07.618Z,6.70
2019-01-17T17:08:36.583Z,6.70
2019-01-17T17:11:06.477Z,6.70
2019-01-17T17:13:35.183Z,6.60
2019-01-17T17:16:04.009Z,6.50
2019-01-17T17:18:32.781Z,6.50
2019-01-17T17:21:03.664Z,6.40
2019-01-17T17:23:32.425Z,6.40
2019-01-17T17:26:01.194Z,6.30
2019-01-17T17:28:30.166Z,6.10
2019-01-17T17:30:58.952Z,5.90
2019-01-17T17:33:27.906Z,5.90
2019-01-17T17:36:00.434Z,5.90
2019-01-17T17:38:29.388Z,5.90
2019-01-17T17:41:01.093Z,5.80
2019-01-17T17:43:29.828Z,5.70
2019-01-17T17:45:59.902Z,5.70
2019-01-17T17:48:28.694Z,5.70
2019-01-17T17:51:00.864Z,5.80
2019-01-17T17:53:29.502Z,5.80
2019-01-17T17:56:04.088Z,5.80
2019-01-17T17:58:32.991Z,5.80
2019-01-17T18:01:23.954Z,5.70
2019-01-17T18:03:54.246Z,5.70
2019-01-17T18:06:23.142Z,5.70
2019-01-17T18:08:51.931Z,5.70
2019-01-17T18:11:20.868Z,5.80
2019-01-17T18:13:49.703Z,5.80
2019-01-17T18:16:18.484Z,5.70
2019-01-17T18:18:47.177Z,5.70
2019-01-17T18:21:15.942Z,5.50
2019-01-17T18:23:46.086Z,5.40
2019-01-17T18:26:14.779Z,5.30
2019-01-17T18:28:43.774Z,5.30
2019-01-17T18:31:12.782Z,5.20
2019-01-17T18:33:41.542Z,5.20
2019-01-17T18:36:10.710Z,5.10
2019-01-17T18:38:41.006Z,5.10
2019-01-17T18:41:10.863Z,5.10
2019-01-17T18:43:39.597Z,5.10
2019-01-17T18:46:08.294Z,5.10
2019-01-17T18:48:37.042Z,5.10
2019-01-17T18:51:05.962Z,5.10
2019-01-17T18:53:34.698Z,5.10
2019-01-17T18:56:06.071Z,5.10
2019-01-17T18:58:34.970Z,5.10
2019-01-17T19:01:04.015Z,5.10
2019-01-17T19:03:32.937Z,5.10
2019-01-17T19:06:05.693Z,5.00
2019-01-17T19:08:34.844Z,4.90
2019-01-17T19:11:04.410Z,4.90
2019-01-17T19:13:33.491Z,5.00
2019-01-17T19:16:07.124Z,5.00
2019-01-17T19:18:36.261Z,5.00
2019-01-17T19:21:09.445Z,5.00
2019-01-17T19:23:40.281Z,4.90
2019-01-17T19:26:19.298Z,5.00
2019-01-17T19:28:48.367Z,5.00
2019-01-17T19:31:17.053Z,5.00
2019-01-17T19:33:46.001Z,4.90
2019-01-17T19:36:14.783Z,4.90
2019-01-17T19:38:43.698Z,4.90
2019-01-17T19:41:12.367Z,4.90
2019-01-17T19:43:41.087Z,4.90
2019-01-17T19:46:09.782Z,4.90
2019-01-17T19:48:38.704Z,4.90
2019-01-17T19:51:07.621Z,4.90
2019-01-17T19:53:36.545Z,4.90
2019-01-17T19:56:05.562Z,4.90
2019-01-17T19:58:34.541Z,4.90
2019-01-17T20:01:09.913Z,4.90
2019-01-17T20:03:38.701Z,4.90
2019-01-17T20:06:07.750Z,4.90
2019-01-17T20:08:36.849Z,4.90
2019-01-17T20:11:06.580Z,4.90
2019-01-17T20:13:35.378Z,4.90
2019-01-17T20:16:07.070Z,4.90
2019-01-17T20:18:37.009Z,4.90
2019-01-17T20:21:06.043Z,4.90
2019-01-17T20:23:34.909Z,5.00
2019-01-17T20:26:03.658Z,5.00
2019-01-17T20:28:35.721Z,5.00
2019-01-17T20:31:03.885Z,4.90
2019-01-17T20:33:32.630Z,5.00
2019-01-17T20:36:01.567Z,5.00
2019-01-17T20:38:30.626Z,5.00
2019-01-17T20:40:59.523Z,4.90
2019-01-17T20:43:28.270Z,5.00
2019-01-17T20:45:57.117Z,5.00
2019-01-17T20:48:25.912Z,5.00
2019-01-17T20:53:42.746Z,4.90
2019-01-17T20:56:11.769Z,4.80
2019-01-17T20:58:42.361Z,4.80
2019-01-17T21:01:34.878Z,4.80
2019-01-17T21:04:05.116Z,4.80
2019-01-17T21:06:33.832Z,4.80
2019-01-17T21:09:04.036Z,4.70
2019-01-17T21:11:32.759Z,4.70
2019-01-17T21:14:02.406Z,4.70
2019-01-17T21:16:31.436Z,4.60
2019-01-17T21:19:00.167Z,4.60
2019-01-17T21:21:28.876Z,4.60
2019-01-17T21:23:58.123Z,4.50
2019-01-17T21:26:27.982Z,4.40
2019-01-17T21:28:57.544Z,4.40
2019-01-17T21:31:26.883Z,4.30
2019-01-17T21:33:55.562Z,4.40
2019-01-17T21:36:24.245Z,4.30
2019-01-17T21:38:52.955Z,4.40
2019-01-17T21:41:21.610Z,4.40
2019-01-17T21:43:50.549Z,4.40
2019-01-17T21:46:19.274Z,4.30
2019-01-17T21:48:47.957Z,4.30
2019-01-17T21:51:16.874Z,4.30
2019-01-17T21:53:45.771Z,4.30
2019-01-17T21:56:14.659Z,4.30
2019-01-17T21:58:43.327Z,4.30
2019-01-17T22:01:12.446Z,4.30
2019-01-17T22:03:41.354Z,4.30
2019-01-17T22:06:10.148Z,4.30
2019-01-17T22:08:38.854Z,4.30
2019-01-17T22:11:12.216Z,4.30
2019-01-17T22:13:41.112Z,4.40
2019-01-17T22:16:10.111Z,4.40
2019-01-17T22:18:39.177Z,4.30
2019-01-17T22:21:08.216Z,4.30
2019-01-17T22:23:37.187Z,4.30
2019-01-17T22:26:09.427Z,4.30
2019-01-17T22:28:39.233Z,4.30
2019-01-17T22:31:08.904Z,4.30
2019-01-17T22:33:38.528Z,4.30
2019-01-17T22:36:07.621Z,4.30
2019-01-17T22:38:36.744Z,4.30
2019-01-17T22:41:06.343Z,4.30
2019-01-17T22:43:35.322Z,4.30
2019-01-17T22:46:05.229Z,4.20
2019-01-17T22:48:33.902Z,4.20
2019-01-17T22:51:05.714Z,4.20
2019-01-17T22:53:34.478Z,4.20
2019-01-17T22:56:03.317Z,4.20
2019-01-17T22:58:32.248Z,4.10
2019-01-17T23:01:18.818Z,4.10
2019-01-17T23:03:49.037Z,4.10
2019-01-17T23:06:17.796Z,4.20
2019-01-17T23:08:46.518Z,4.20
2019-01-17T23:11:15.510Z,4.10
2019-01-17T23:13:44.186Z,4.20
2019-01-17T23:16:13.957Z,4.10
2019-01-17T23:18:43.749Z,4.10
2019-01-17T23:21:12.465Z,4.10
2019-01-17T23:23:41.534Z,4.00
2019-01-17T23:26:10.350Z,3.90
2019-01-17T23:28:39.086Z,3.80
2019-01-17T23:31:07.808Z,3.80
2019-01-17T23:33:36.718Z,3.80
2019-01-17T23:36:05.606Z,3.80
2019-01-17T23:38:34.665Z,3.70
2019-01-17T23:41:03.349Z,3.70
2019-01-17T23:43:32.062Z,3.60
2019-01-17T23:46:01.301Z,3.60
2019-01-17T23:48:30.057Z,3.60
2019-01-17T23:50:58.742Z,3.60
2019-01-17T23:53:27.762Z,3.70
2019-01-17T23:55:56.960Z,3.70
2019-01-17T23:58:25.655Z,3.70
